Time;durP1;ratioP1;P1;durP2;ratioP2;P2;SDS_P1;SDS_P2;PMS_P1;PMS_P2;Temp;Humidity;BMP_temperature;BMP_pressure;BME280_temperature;BME280_humidity;BME280_pressure;Samples;Min_cycle;Max_cycle;Signal;HPM_P1;HPM_P2
2021/04/16 00:00:47;;;;;;;9.20;3.50;;;;;;;5.28;54.25;103017.47;4972969;28;20061;-73
2021/04/16 00:03:15;;;;;;;9.05;3.72;;;;;;;5.21;53.92;103008.19;5001306;28;20050;-73
2021/04/16 00:05:42;;;;;;;11.60;3.58;;;;;;;5.18;55.18;103004.88;4999980;28;20133;-73
2021/04/16 00:08:11;;;;;;;6.82;3.55;;;;;;;5.14;54.60;103012.78;4976698;28;20100;-74
2021/04/16 00:10:44;;;;;;;9.10;3.17;;;;;;;5.17;54.46;103006.59;5002335;28;20061;-73
2021/04/16 00:13:12;;;;;;;9.35;3.97;;;;;;;5.08;55.05;102993.97;4996033;28;20050;-73
2021/04/16 00:15:40;;;;;;;9.23;3.47;;;;;;;5.05;55.13;103000.09;5004001;28;20104;-73
2021/04/16 00:18:09;;;;;;;11.18;3.95;;;;;;;5.07;55.19;103003.50;4981914;28;20088;-73
2021/04/16 00:20:35;;;;;;;10.68;4.28;;;;;;;4.96;55.55;102992.66;4993308;28;20540;-73
2021/04/16 00:23:02;;;;;;;9.23;4.15;;;;;;;4.92;55.82;103004.06;4993378;28;20105;-73
2021/04/16 00:25:30;;;;;;;11.88;3.80;;;;;;;4.93;55.67;102992.75;4992376;28;20054;-73
2021/04/16 00:27:58;;;;;;;7.83;3.30;;;;;;;4.89;55.52;102988.59;5003870;28;20050;-73
2021/04/16 00:30:42;;;;;;;12.30;3.65;;;;;;;4.91;55.76;102994.56;4980127;28;20053;-74
2021/04/16 00:33:09;;;;;;;12.43;4.30;;;;;;;4.88;56.10;102990.34;4977141;28;20053;-73
2021/04/16 00:35:36;;;;;;;10.13;3.40;;;;;;;4.88;56.23;102984.28;4984435;28;20422;-73
2021/04/16 00:38:03;;;;;;;7.63;3.75;;;;;;;4.86;55.61;102988.69;5000742;28;20104;-73
2021/04/16 00:40:33;;;;;;;11.60;4.38;;;;;;;4.79;56.35;102976.81;5006350;28;20386;-73
2021/04/16 00:43:01;;;;;;;7.63;3.95;;;;;;;4.81;56.48;102973.25;5003147;28;20058;-73
2021/04/16 00:45:29;;;;;;;8.60;3.60;;;;;;;4.78;56.74;102970.75;5017343;28;20058;-73
2021/04/16 00:47:59;;;;;;;12.00;3.40;;;;;;;4.74;56.96;102970.03;5004687;28;20050;-73
2021/04/16 00:50:33;;;;;;;9.73;3.97;;;;;;;4.70;56.90;102968.44;5013703;28;20057;-73
2021/04/16 00:53:01;;;;;;;8.93;3.97;;;;;;;4.65;57.29;102956.53;5007283;28;20053;-73
2021/04/16 00:55:28;;;;;;;6.45;3.70;;;;;;;4.65;57.58;102964.31;4995979;28;20112;-73
2021/04/16 00:57:54;;;;;;;10.52;3.75;;;;;;;4.57;57.68;102959.41;5006616;28;20050;-73
2021/04/16 01:00:23;;;;;;;12.52;3.65;;;;;;;4.58;57.61;102947.25;5007186;28;20136;-73
2021/04/16 01:02:49;;;;;;;8.32;3.35;;;;;;;4.58;57.33;102955.88;5010837;28;20394;-73
2021/04/16 01:05:16;;;;;;;9.80;3.60;;;;;;;4.41;58.02;102937.44;4989284;28;20469;-75
2021/04/16 01:07:42;;;;;;;7.18;3.33;;;;;;;4.46;58.05;102945.94;5009651;28;20045;-75
2021/04/16 01:10:09;;;;;;;7.53;3.90;;;;;;;4.48;58.00;102951.94;4983703;28;20572;-73
2021/04/16 01:12:36;;;;;;;10.23;3.75;;;;;;;4.38;57.93;102945.38;4995333;28;20054;-73
2021/04/16 01:15:32;;;;;;;10.88;3.45;;;;;;;4.41;57.96;102948.72;4982444;28;20058;-73
2021/04/16 01:18:04;;;;;;;6.75;3.22;;;;;;;4.42;58.34;102957.34;4998241;28;20776;-73
2021/04/16 01:20:36;;;;;;;5.68;3.10;;;;;;;4.35;58.44;102951.50;5000119;28;20851;-73
2021/04/16 01:23:06;;;;;;;6.18;3.35;;;;;;;4.32;58.92;102951.63;5005273;28;20057;-72
2021/04/16 01:25:32;;;;;;;9.02;3.80;;;;;;;4.32;58.08;102943.81;4985545;28;20058;-73
2021/04/16 01:27:58;;;;;;;11.10;3.72;;;;;;;4.29;59.25;102949.97;4995903;28;20065;-73
2021/04/16 01:30:30;;;;;;;7.97;3.45;;;;;;;4.27;58.88;102943.13;5004003;28;20050;-72
2021/04/16 01:32:57;;;;;;;10.75;3.70;;;;;;;4.25;58.45;102953.56;4998159;28;20058;-73
2021/04/16 01:35:31;;;;;;;7.95;3.22;;;;;;;4.22;59.31;102950.25;5004311;28;20086;-73
2021/04/16 01:37:58;;;;;;;10.00;4.00;;;;;;;4.15;58.90;102941.78;4991884;28;20050;-73
2021/04/16 01:40:24;;;;;;;9.15;3.40;;;;;;;4.11;59.24;102945.41;5000199;28;20053;-73
2021/04/16 01:42:50;;;;;;;8.63;3.35;;;;;;;4.07;58.91;102942.06;5004084;28;20592;-72
2021/04/16 01:45:29;;;;;;;8.82;3.20;;;;;;;4.09;59.92;102955.00;4982608;28;20890;-72
2021/04/16 01:48:00;;;;;;;9.73;3.40;;;;;;;4.07;59.67;102952.44;5004254;28;20057;-72
2021/04/16 01:50:28;;;;;;;6.68;3.60;;;;;;;4.04;60.38;102949.09;4985027;28;20069;-72
2021/04/16 01:52:57;;;;;;;10.02;3.50;;;;;;;4.01;60.60;102944.03;5000922;28;20057;-73
2021/04/16 01:55:24;;;;;;;7.90;3.38;;;;;;;4.10;60.08;102954.94;4994695;28;20058;-73
2021/04/16 01:57:50;;;;;;;7.22;3.63;;;;;;;4.07;59.78;102943.81;4981838;28;20390;-73
2021/04/16 02:00:25;;;;;;;11.13;3.60;;;;;;;4.05;60.31;102949.06;4984998;28;20050;-73
2021/04/16 02:02:51;;;;;;;7.55;3.28;;;;;;;4.01;60.43;102949.22;5003154;28;20058;-72
2021/04/16 02:05:17;;;;;;;8.10;3.80;;;;;;;3.99;61.27;102951.03;5000600;28;20058;-73
2021/04/16 02:07:43;;;;;;;8.50;3.10;;;;;;;4.02;60.45;102954.38;4994667;28;20556;-73
2021/04/16 02:10:10;;;;;;;10.25;3.00;;;;;;;4.00;61.15;102956.16;4999669;28;20468;-72
2021/04/16 02:12:37;;;;;;;7.45;3.28;;;;;;;3.97;61.23;102944.13;4997057;28;20092;-73
2021/04/16 02:15:04;;;;;;;13.10;4.15;;;;;;;3.98;61.66;102947.59;5003434;28;20057;-73
2021/04/16 02:17:30;;;;;;;12.90;4.43;;;;;;;3.97;61.82;102946.72;4998619;28;20042;-73
2021/04/16 02:19:59;;;;;;;8.90;3.40;;;;;;;3.93;61.89;102947.72;5003243;28;20104;-73
2021/04/16 02:22:28;;;;;;;13.68;4.15;;;;;;;3.97;61.87;102956.25;4997714;28;20057;-73
2021/04/16 02:24:55;;;;;;;7.80;3.70;;;;;;;3.94;62.45;102946.84;4996189;28;20081;-73
2021/04/16 02:27:24;;;;;;;10.60;3.47;;;;;;;3.94;62.58;102954.63;5002746;28;20045;-73
2021/04/16 02:29:50;;;;;;;9.70;4.07;;;;;;;3.96;62.96;102950.22;4994889;28;20894;-73
2021/04/16 02:32:16;;;;;;;12.85;4.20;;;;;;;3.91;62.91;102944.31;4991025;28;20082;-73
2021/04/16 02:34:43;;;;;;;7.78;3.83;;;;;;;3.96;62.37;102944.19;5001552;28;20085;-73
2021/04/16 02:37:14;;;;;;;9.77;4.10;;;;;;;3.92;62.84;102938.25;4999598;28;20050;-73
2021/04/16 02:39:40;;;;;;;9.27;3.40;;;;;;;3.95;62.36;102953.72;4985172;28;20108;-73
2021/04/16 02:42:08;;;;;;;8.13;3.58;;;;;;;3.94;62.67;102948.59;4995313;28;20050;-73
2021/04/16 02:44:34;;;;;;;9.77;3.85;;;;;;;3.92;62.79;102939.97;4998005;28;20493;-73
2021/04/16 02:47:00;;;;;;;7.80;4.25;;;;;;;3.93;62.90;102952.91;4976833;28;20054;-73
2021/04/16 02:49:27;;;;;;;9.10;3.95;;;;;;;3.91;62.68;102949.53;4996691;28;20136;-73
2021/04/16 02:51:54;;;;;;;7.85;3.33;;;;;;;3.89;63.07;102950.47;4988500;28;20045;-73
2021/04/16 02:54:20;;;;;;;9.60;3.58;;;;;;;3.87;62.90;102947.94;5001292;28;20468;-73
2021/04/16 02:56:46;;;;;;;6.22;3.17;;;;;;;3.82;63.19;102943.78;5002396;28;20053;-73
2021/04/16 02:59:13;;;;;;;8.10;3.50;;;;;;;3.80;63.57;102945.56;4996529;28;20460;-72
2021/04/16 03:01:39;;;;;;;9.80;3.45;;;;;;;3.82;63.44;102946.38;4999608;28;20678;-74
2021/04/16 03:04:06;;;;;;;9.40;3.50;;;;;;;3.74;63.84;102934.50;4993799;28;20483;-73
2021/04/16 03:06:32;;;;;;;10.05;3.92;;;;;;;3.75;64.23;102941.38;5003249;28;20112;-73
2021/04/16 03:09:01;;;;;;;10.48;4.10;;;;;;;3.69;64.05;102932.97;4996340;28;20054;-73
2021/04/16 03:11:27;;;;;;;;;;;;;;;3.73;64.25;102944.94;5002545;28;20116;-73
2021/04/16 03:13:54;;;;;;;11.98;3.88;;;;;;;3.70;63.62;102935.47;5002468;28;19956;-73
2021/04/16 03:16:23;;;;;;;6.90;3.60;;;;;;;3.70;64.17;102939.84;4975726;28;20053;-74
2021/04/16 03:18:51;;;;;;;8.85;3.80;;;;;;;3.64;64.05;102934.84;5000230;28;20049;-73
2021/04/16 03:21:18;;;;;;;13.85;3.60;;;;;;;3.68;64.15;102933.84;4993647;28;20076;-74
2021/04/16 03:23:44;;;;;;;8.50;3.55;;;;;;;3.65;63.98;102936.56;4987599;28;20101;-74
2021/04/16 03:26:15;;;;;;;8.45;3.33;;;;;;;3.66;63.82;102935.66;4986695;28;20053;-74
2021/04/16 03:28:41;;;;;;;10.88;3.88;;;;;;;3.55;64.18;102934.25;4999567;28;20046;-73
2021/04/16 03:31:07;;;;;;;8.30;3.90;;;;;;;3.55;64.30;102938.59;4998526;28;20161;-74
2021/04/16 03:33:34;;;;;;;6.90;3.40;;;;;;;3.52;64.42;102936.94;4995918;28;20164;-74
2021/04/16 03:36:01;;;;;;;9.73;3.97;;;;;;;3.49;64.45;102933.56;4998712;28;20056;-73
2021/04/16 03:38:28;;;;;;;10.02;4.40;;;;;;;3.44;64.99;102933.72;4996293;28;20103;-74
2021/04/16 03:40:54;;;;;;;10.82;3.83;;;;;;;3.46;64.46;102934.53;5002470;28;20598;-74
2021/04/16 03:43:20;;;;;;;10.40;3.63;;;;;;;3.49;64.41;102936.16;4986032;28;20109;-74
2021/04/16 03:45:46;;;;;;;10.80;4.65;;;;;;;3.47;65.26;102933.66;5001287;28;20072;-74
2021/04/16 03:48:12;;;;;;;9.23;3.83;;;;;;;3.47;65.08;102928.47;4995977;28;20167;-74
2021/04/16 03:50:39;;;;;;;8.90;3.75;;;;;;;3.46;65.01;102923.31;4990051;28;20730;-74
2021/04/16 03:53:07;;;;;;;11.15;4.18;;;;;;;3.48;65.12;102921.53;4993539;28;20054;-74
2021/04/16 03:55:36;;;;;;;14.00;5.35;;;;;;;3.40;65.53;102919.16;4996112;28;20049;-74
2021/04/16 03:58:07;;;;;;;14.55;5.38;;;;;;;3.46;65.69;102929.34;5007557;28;20053;-74
2021/04/16 04:00:37;;;;;;;14.30;4.60;;;;;;;3.42;65.55;102925.16;4996011;28;20054;-74
2021/04/16 04:03:05;;;;;;;13.73;4.15;;;;;;;3.43;65.05;102928.59;5001947;28;20049;-74
2021/04/16 04:05:32;;;;;;;10.60;4.13;;;;;;;3.46;65.21;102936.28;4999429;28;20420;-74
2021/04/16 04:07:58;;;;;;;11.75;3.85;;;;;;;3.40;65.61;102915.72;5002281;28;20057;-74
2021/04/16 04:10:25;;;;;;;9.80;4.05;;;;;;;3.39;64.96;102925.22;4985197;28;20049;-74
2021/04/16 04:12:51;;;;;;;10.45;3.78;;;;;;;3.41;65.15;102933.84;4998599;28;20513;-74
2021/04/16 04:15:19;;;;;;;11.65;4.10;;;;;;;3.41;65.88;102928.66;5005952;28;20100;-74
2021/04/16 04:17:46;;;;;;;11.82;3.85;;;;;;;3.34;64.93;102917.59;4999160;28;20065;-75
2021/04/16 04:20:23;;;;;;;11.07;4.25;;;;;;;3.33;64.95;102930.63;4989034;28;20068;-75
2021/04/16 04:22:49;;;;;;;10.65;4.10;;;;;;;3.28;65.43;102920.41;4978480;28;20707;-73
2021/04/16 04:25:21;;;;;;;8.55;3.70;;;;;;;3.23;65.56;102918.84;5001528;28;20054;-76
2021/04/16 04:27:47;;;;;;;8.32;4.15;;;;;;;3.21;65.93;102928.41;5005874;28;20110;-74
2021/04/16 04:30:14;;;;;;;11.35;4.63;;;;;;;3.20;66.44;102927.56;4995673;28;20093;-76
2021/04/16 04:32:40;;;;;;;8.77;3.97;;;;;;;3.23;66.02;102918.84;4987041;28;20042;-76
2021/04/16 04:35:08;;;;;;;9.82;4.18;;;;;;;3.18;66.73;102916.41;4991729;28;20050;-76
2021/04/16 04:37:34;;;;;;;10.93;4.47;;;;;;;3.29;66.16;102924.69;4993634;28;20057;-76
2021/04/16 04:40:00;;;;;;;9.90;4.10;;;;;;;3.34;66.04;102930.56;4997615;28;20112;-76
2021/04/16 04:42:26;;;;;;;9.32;4.70;;;;;;;3.38;66.17;102930.50;4998966;28;20053;-76
2021/04/16 04:44:52;;;;;;;9.75;4.38;;;;;;;3.38;65.41;102922.72;5009940;28;20816;-76
2021/04/16 04:47:18;;;;;;;13.90;4.45;;;;;;;3.42;65.91;102937.28;4981092;28;20052;-76
2021/04/16 04:49:45;;;;;;;11.52;4.47;;;;;;;3.41;65.89;102933.84;5003315;28;20058;-75
2021/04/16 04:52:25;;;;;;;17.67;5.05;;;;;;;3.42;65.80;102930.34;5003161;28;20551;-75
2021/04/16 04:54:53;;;;;;;17.48;5.78;;;;;;;3.41;66.69;102931.25;4998204;28;20065;-75
2021/04/16 04:57:21;;;;;;;12.85;4.93;;;;;;;3.45;66.07;102927.66;4987879;28;20493;-77
2021/04/16 04:59:48;;;;;;;14.85;4.95;;;;;;;3.42;66.45;102919.97;4988459;28;20054;-77
2021/04/16 05:02:16;;;;;;;15.23;5.53;;;;;;;3.46;66.74;102931.09;4989539;28;20050;-78
2021/04/16 05:04:42;;;;;;;16.58;5.43;;;;;;;3.45;66.47;102929.38;4988295;28;20053;-75
2021/04/16 05:07:11;;;;;;;12.05;4.65;;;;;;;3.45;66.57;102929.38;4992925;28;20058;-75
2021/04/16 05:09:37;;;;;;;;;;;;;;;3.48;66.68;102932.75;4988576;28;20049;-72
2021/04/16 05:12:03;;;;;;;12.02;5.03;;;;;;;3.50;66.65;102936.13;5009479;28;19925;-75
2021/04/16 05:14:29;;;;;;;12.32;4.72;;;;;;;3.51;66.76;102934.41;4997261;28;20062;-74
2021/04/16 05:16:56;;;;;;;9.25;4.70;;;;;;;3.53;66.71;102937.81;4990487;28;20865;-74
2021/04/16 05:19:23;;;;;;;12.18;5.47;;;;;;;3.54;66.37;102934.28;4979255;28;20371;-76
2021/04/16 05:21:51;;;;;;;10.00;4.88;;;;;;;3.53;66.83;102938.66;4983397;28;20430;-76
2021/04/16 05:24:17;;;;;;;11.15;4.85;;;;;;;3.56;66.85;102941.13;4986227;28;20058;-74
2021/04/16 05:26:43;;;;;;;15.88;5.68;;;;;;;3.58;66.77;102948.03;4983387;28;20049;-76
2021/04/16 05:29:09;;;;;;;13.27;5.68;;;;;;;3.54;66.42;102932.53;5009105;28;20057;-75
2021/04/16 05:31:35;;;;;;;13.05;5.72;;;;;;;3.60;67.36;102946.22;4977558;28;20697;-76
2021/04/16 05:34:03;;;;;;;14.38;5.53;;;;;;;3.60;67.13;102947.06;4999263;28;20053;-73
2021/04/16 05:36:29;;;;;;;11.45;4.82;;;;;;;3.69;66.91;102943.34;4987341;28;20054;-73
2021/04/16 05:38:55;;;;;;;16.75;5.95;;;;;;;3.71;67.10;102952.78;4984538;28;20065;-72
2021/04/16 05:41:22;;;;;;;13.82;5.72;;;;;;;3.73;66.84;102948.38;4983122;28;20058;-75
2021/04/16 05:43:48;;;;;;;20.27;7.00;;;;;;;3.76;66.38;102952.63;5002504;28;20153;-73
2021/04/16 05:46:15;;;;;;;25.05;10.90;;;;;;;3.79;66.38;102949.94;4999300;28;20062;-75
2021/04/16 05:48:42;;;;;;;24.83;6.93;;;;;;;3.82;66.78;102944.63;4981265;28;20554;-75
2021/04/16 05:51:08;;;;;;;16.58;5.72;;;;;;;3.81;66.50;102947.28;4996335;28;20046;-73
2021/04/16 05:53:34;;;;;;;20.35;6.45;;;;;;;3.83;67.33;102946.34;4979338;28;20065;-72
2021/04/16 05:56:01;;;;;;;19.02;6.75;;;;;;;3.87;66.49;102944.50;4999077;28;20053;-73
2021/04/16 05:58:27;;;;;;;18.88;6.75;;;;;;;3.87;66.51;102937.53;5008886;28;20889;-73
2021/04/16 06:00:54;;;;;;;22.42;6.75;;;;;;;3.95;66.39;102947.69;4986923;28;20065;-73
2021/04/16 06:03:20;;;;;;;16.50;6.65;;;;;;;3.95;66.56;102945.91;4991342;28;20544;-72
2021/04/16 06:05:46;;;;;;;19.08;6.60;;;;;;;3.95;66.67;102945.06;4986825;28;20058;-74
2021/04/16 06:08:12;;;;;;;19.20;7.38;;;;;;;3.93;66.65;102941.69;4986739;28;20057;-76
2021/04/16 06:10:38;;;;;;;16.42;7.68;;;;;;;3.97;66.47;102945.88;4987489;28;20049;-74
2021/04/16 06:13:04;;;;;;;21.73;7.15;;;;;;;3.98;66.62;102939.78;4979305;28;21338;-76
2021/04/16 06:15:31;;;;;;;17.98;7.40;;;;;;;4.05;66.63;102943.88;4983107;28;20470;-73
2021/04/16 06:17:57;;;;;;;30.33;10.48;;;;;;;4.08;66.73;102946.38;4983357;28;20062;-72
2021/04/16 06:20:26;;;;;;;16.38;6.25;;;;;;;4.10;66.75;102946.31;4988928;28;20470;-72
2021/04/16 06:22:54;;;;;;;14.43;6.18;;;;;;;4.17;66.93;102950.38;4991937;28;20087;-73
2021/04/16 06:25:24;;;;;;;17.95;6.88;;;;;;;4.21;66.62;102941.59;5003689;28;20058;-72
2021/04/16 06:27:50;;;;;;;15.55;6.63;;;;;;;4.20;66.88;102932.09;4978277;28;20498;-72
2021/04/16 06:30:19;;;;;;;15.65;5.68;;;;;;;4.39;66.68;102958.31;5000118;28;20080;-72
2021/04/16 06:33:04;;;;;;;11.15;5.53;;;;;;;4.49;66.36;102951.88;5002150;28;20115;-72
2021/04/16 06:35:32;;;;;;;17.10;6.95;;;;;;;4.56;66.57;102955.09;4997932;28;20064;-72
2021/04/16 06:37:58;;;;;;;18.23;7.63;;;;;;;4.63;66.36;102956.59;5002638;28;20739;-72
2021/04/16 06:40:25;;;;;;;15.65;6.40;;;;;;;4.61;66.00;102963.59;4983434;28;20073;-72
2021/04/16 06:42:51;;;;;;;12.27;5.80;;;;;;;4.74;66.39;102964.84;4990160;28;20057;-72
2021/04/16 06:45:24;;;;;;;25.38;9.40;;;;;;;4.81;66.25;102962.84;4984433;28;20473;-72
2021/04/16 06:47:55;;;;;;;20.48;8.02;;;;;;;4.89;66.29;102965.19;4995920;28;20405;-73
2021/04/16 06:50:25;;;;;;;16.42;6.80;;;;;;;4.94;66.02;102951.09;4991088;28;20069;-72
2021/04/16 06:53:01;;;;;;;20.83;6.38;;;;;;;5.10;65.78;102958.34;4992772;28;20062;-73
2021/04/16 06:55:52;;;;;;;19.63;7.10;;;;;;;5.25;65.49;102964.69;4991957;28;20135;-73
2021/04/16 06:58:23;;;;;;;22.75;7.47;;;;;;;5.37;64.80;102960.75;4979319;28;20059;-73
2021/04/16 07:01:00;;;;;;;19.92;6.65;;;;;;;5.50;64.99;102962.81;5002359;28;20058;-73
2021/04/16 07:03:30;;;;;;;15.00;5.97;;;;;;;5.61;64.82;102958.97;4995490;28;20050;-73
2021/04/16 07:06:03;;;;;;;13.15;5.80;;;;;;;5.60;64.30;102947.66;5002354;28;20049;-72
2021/04/16 07:08:39;;;;;;;13.77;7.03;;;;;;;5.65;63.40;102952.72;4996889;28;20586;-74
2021/04/16 07:11:52;;;;;;;25.10;8.50;;;;;;;5.68;63.67;102963.81;4989939;28;20133;-73
2021/04/16 07:14:47;;;;;;;20.30;6.60;;;;;;;5.70;62.99;102940.34;4991214;28;20111;-73
2021/04/16 07:17:18;;;;;;;18.23;6.80;;;;;;;5.74;63.20;102947.09;5002845;28;20104;-73
2021/04/16 07:19:45;;;;;;;19.65;6.95;;;;;;;5.71;62.84;102952.47;4997904;28;20140;-73
2021/04/16 07:22:44;;;;;;;17.15;6.85;;;;;;;5.77;62.40;102951.38;4985918;28;20128;-73
2021/04/16 07:25:40;;;;;;;18.33;7.28;;;;;;;5.80;62.62;102943.41;4972749;28;20112;-73
2021/04/16 07:28:38;;;;;;;16.25;8.13;;;;;;;5.85;61.55;102942.31;4987554;28;20077;-73
2021/04/16 07:31:25;;;;;;;15.40;6.88;;;;;;;5.88;61.46;102941.31;4985775;28;20124;-73
2021/04/16 07:33:52;;;;;;;18.50;7.15;;;;;;;5.92;61.83;102946.38;4994763;28;20053;-72
2021/04/16 07:36:39;;;;;;;22.77;7.28;;;;;;;5.90;61.47;102937.78;4992213;28;20054;-72
2021/04/16 07:39:14;;;;;;;24.50;7.70;;;;;;;5.96;60.84;102946.25;4997213;28;20081;-72
2021/04/16 07:41:44;;;;;;;17.13;7.10;;;;;;;6.01;60.73;102939.09;4987776;28;20054;-72
2021/04/16 07:44:40;;;;;;;18.35;6.82;;;;;;;6.05;60.61;102938.91;4990919;28;20057;-73
2021/04/16 07:47:12;;;;;;;25.27;8.15;;;;;;;6.11;60.61;102940.41;4994731;28;20057;-73
2021/04/16 07:49:52;;;;;;;23.42;7.65;;;;;;;6.15;60.32;102939.34;5004342;28;20060;-73
2021/04/16 07:52:31;;;;;;;25.00;7.80;;;;;;;6.19;59.34;102940.06;5000258;28;20565;-72
2021/04/16 07:55:05;;;;;;;19.05;7.38;;;;;;;6.25;60.16;102943.28;4987703;28;20058;-73
2021/04/16 07:57:34;;;;;;;20.25;6.30;;;;;;;6.32;59.64;102939.47;4992599;28;20060;-72
2021/04/16 08:00:09;;;;;;;13.43;6.13;;;;;;;6.41;59.59;102943.47;4994826;28;20057;-72
2021/04/16 08:02:45;;;;;;;16.08;5.35;;;;;;;6.52;59.24;102938.59;4989831;28;20053;-71
2021/04/16 08:05:30;;;;;;;16.83;5.47;;;;;;;6.73;57.54;102934.19;4991952;28;20690;-73
2021/04/16 08:08:12;;;;;;;15.23;6.13;;;;;;;7.00;57.09;102941.69;5001964;28;20053;-73
2021/04/16 08:10:41;;;;;;;16.08;6.68;;;;;;;7.30;56.02;102936.75;4996308;28;20049;-72
2021/04/16 08:13:13;;;;;;;13.48;6.22;;;;;;;7.59;55.87;102938.91;5000299;28;20585;-72
2021/04/16 08:15:40;;;;;;;12.60;5.78;;;;;;;7.93;54.35;102941.53;4995169;28;20121;-72
2021/04/16 08:18:22;;;;;;;16.38;6.95;;;;;;;8.29;54.31;102937.97;4985696;28;20100;-72
2021/04/16 08:21:17;;;;;;;14.40;5.85;;;;;;;8.68;53.38;102943.81;4971050;28;20057;-72
2021/04/16 08:23:53;;;;;;;12.23;5.53;;;;;;;9.01;51.61;102941.13;4981211;28;20120;-73
2021/04/16 08:26:23;;;;;;;12.23;4.68;;;;;;;9.28;51.12;102937.94;4990246;28;20463;-72
2021/04/16 08:28:51;;;;;;;12.90;5.45;;;;;;;9.55;49.46;102935.53;4965229;28;20516;-72
2021/04/16 08:31:32;;;;;;;16.02;5.45;;;;;;;9.76;48.06;102930.81;5004152;28;20448;-73
2021/04/16 08:34:06;;;;;;;8.73;4.30;;;;;;;10.05;47.62;102934.31;4992900;28;20133;-73
2021/04/16 08:36:41;;;;;;;10.65;4.50;;;;;;;10.22;47.18;102925.47;4996256;28;20054;-74
2021/04/16 08:39:41;;;;;;;13.10;4.65;;;;;;;10.45;45.90;102928.50;4998135;28;20054;-73
2021/04/16 08:42:13;;;;;;;11.57;4.95;;;;;;;10.68;45.78;102927.94;4991380;28;20745;-72
2021/04/16 08:44:48;;;;;;;14.68;4.82;;;;;;;10.80;44.51;102922.84;4984974;28;20097;-73
2021/04/16 08:47:30;;;;;;;19.33;5.75;;;;;;;10.99;44.73;102927.78;5003340;28;20135;-73
2021/04/16 08:49:57;;;;;;;8.68;4.13;;;;;;;10.91;43.98;102928.25;5003376;28;20053;-73
2021/04/16 08:52:36;;;;;;;10.75;4.13;;;;;;;10.97;43.02;102924.41;4986838;28;20111;-73
2021/04/16 08:55:27;;;;;;;8.52;4.00;;;;;;;11.08;42.60;102927.19;4994379;28;20055;-73
2021/04/16 08:57:55;;;;;;;12.18;3.67;;;;;;;11.29;42.81;102927.59;5000345;28;20046;-73
2021/04/16 09:00:42;;;;;;;8.48;3.05;;;;;;;11.50;40.13;102917.47;4996273;28;20050;-73
2021/04/16 09:03:39;;;;;;;8.73;2.75;;;;;;;11.58;38.52;102920.41;4999635;28;20159;-73
2021/04/16 09:06:42;;;;;;;9.50;2.97;;;;;;;11.77;38.69;102916.56;5002399;28;20561;-73
2021/04/16 09:09:13;;;;;;;5.40;2.33;;;;;;;11.94;38.53;102918.13;4992450;28;20049;-73
2021/04/16 09:11:43;;;;;;;5.78;2.20;;;;;;;12.02;37.12;102919.25;4984672;28;20131;-73
2021/04/16 09:14:32;;;;;;;7.20;2.38;;;;;;;12.09;37.03;102917.03;4980998;28;20838;-73
2021/04/16 09:17:19;;;;;;;6.47;2.50;;;;;;;12.30;36.66;102909.47;4986454;28;20052;-73
2021/04/16 09:19:58;;;;;;;10.00;3.72;;;;;;;12.38;36.74;102899.25;4988948;28;20075;-73
2021/04/16 09:22:35;;;;;;;13.02;2.83;;;;;;;12.60;36.38;102913.53;4986178;28;20581;-73
2021/04/16 09:25:04;;;;;;;6.68;2.60;;;;;;;12.80;36.70;102917.38;4983517;28;20729;-72
2021/04/16 09:27:41;;;;;;;7.72;2.50;;;;;;;12.79;35.78;102910.44;4967045;28;20127;-72
2021/04/16 09:30:08;;;;;;;7.43;3.10;;;;;;;12.76;35.55;102903.59;4983406;28;20049;-72
2021/04/16 09:32:42;;;;;;;11.80;3.67;;;;;;;12.97;35.25;102905.63;5000649;28;20057;-72
2021/04/16 09:35:11;;;;;;;6.28;3.03;;;;;;;13.05;34.81;102898.88;4981749;28;20532;-72
2021/04/16 09:37:39;;;;;;;;;;;;;;;13.25;35.67;102909.75;4979730;28;20073;-71
2021/04/16 09:40:26;;;;;;;5.53;2.53;;;;;;;13.30;33.79;102904.16;4989914;28;19925;-72
2021/04/16 09:42:56;;;;;;;11.98;2.90;;;;;;;13.38;34.52;102897.34;4988334;28;20112;-72
2021/04/16 09:45:22;;;;;;;7.20;2.70;;;;;;;13.55;35.49;102898.72;4991347;28;20053;-71
2021/04/16 09:47:51;;;;;;;7.50;2.72;;;;;;;13.67;35.33;102894.31;4997332;28;20105;-72
2021/04/16 09:50:42;;;;;;;5.70;2.75;;;;;;;13.88;34.07;102888.34;4988275;28;20053;-72
2021/04/16 09:53:33;;;;;;;5.55;2.00;;;;;;;14.02;33.63;102893.44;4985070;28;20057;-72
2021/04/16 09:56:01;;;;;;;5.00;2.10;;;;;;;14.11;33.08;102889.22;4985319;28;20426;-72
2021/04/16 09:58:39;;;;;;;10.60;3.45;;;;;;;14.24;33.65;102893.44;4978917;28;20083;-72
2021/04/16 10:01:11;;;;;;;7.43;3.40;;;;;;;14.33;32.33;102883.09;4988709;28;20161;-72
2021/04/16 10:03:49;;;;;;;5.03;2.13;;;;;;;14.44;32.05;102889.25;4966762;28;20165;-73
2021/04/16 10:06:22;;;;;;;4.72;2.00;;;;;;;14.56;33.12;102887.47;4999067;28;20493;-73
2021/04/16 10:09:03;;;;;;;4.80;2.20;;;;;;;14.64;31.98;102881.53;4990988;28;20113;-73
2021/04/16 10:11:30;;;;;;;7.80;2.50;;;;;;;14.73;32.80;102875.53;4974889;28;20080;-73
2021/04/16 10:14:33;;;;;;;7.93;2.63;;;;;;;14.91;32.16;102875.00;4995563;28;20482;-73
2021/04/16 10:17:08;;;;;;;5.90;2.28;;;;;;;14.94;30.45;102869.47;4986527;28;20493;-73
2021/04/16 10:19:40;;;;;;;8.60;2.03;;;;;;;15.11;31.09;102874.22;4994686;28;20137;-73
2021/04/16 10:22:11;;;;;;;4.82;2.22;;;;;;;15.19;29.76;102865.63;4997314;28;20096;-73
2021/04/16 10:37:44;;;;;;;9.90;3.00;;;;;;;15.56;31.37;102859.94;5002361;28;20581;-73
2021/04/16 10:40:43;;;;;;;4.93;2.35;;;;;;;15.77;32.20;102862.59;4984580;28;20054;-73
2021/04/16 11:23:13;;;;;;;8.10;3.13;;;;;;;17.44;28.67;102817.72;4994388;28;20322;-72
2021/04/16 12:40:56;;;;;;;9.35;1.95;;;;;;;19.07;22.73;102740.00;5008040;28;20060;-74
2021/04/16 12:43:23;;;;;;;3.95;2.20;;;;;;;19.29;23.05;102749.31;4997590;28;20112;-73
2021/04/16 12:45:55;;;;;;;3.72;1.80;;;;;;;19.30;21.71;102745.66;4981742;28;20557;-74
2021/04/16 12:48:23;;;;;;;6.25;1.73;;;;;;;19.40;21.95;102740.22;4998471;28;20054;-74
2021/04/16 12:50:49;;;;;;;4.70;2.80;;;;;;;19.53;22.12;102746.75;4981691;28;20058;-73
2021/04/16 12:53:20;;;;;;;3.35;1.60;;;;;;;19.56;20.52;102745.59;4987031;28;20058;-74
2021/04/16 12:55:46;;;;;;;3.70;2.20;;;;;;;19.50;21.55;102736.44;4982469;28;20054;-75
2021/04/16 12:58:22;;;;;;;4.90;1.90;;;;;;;19.34;22.44;102734.50;5007772;28;20155;-74
2021/04/16 13:00:49;;;;;;;5.43;2.10;;;;;;;19.55;22.34;102741.28;5002157;28;20532;-74
2021/04/16 13:03:19;;;;;;;4.55;1.80;;;;;;;19.60;23.97;102738.13;4993359;28;20073;-75
2021/04/16 13:05:48;;;;;;;4.95;2.22;;;;;;;19.45;21.94;102733.41;4997186;28;20046;-75
2021/04/16 13:08:15;;;;;;;7.45;2.20;;;;;;;19.62;23.04;102745.00;4984965;28;20058;-75
2021/04/16 13:10:41;;;;;;;3.60;1.83;;;;;;;19.80;23.42;102750.25;4990363;28;20112;-75
2021/04/16 13:13:11;;;;;;;3.97;1.80;;;;;;;20.00;21.75;102740.16;4982294;28;20053;-74
2021/04/16 13:15:38;;;;;;;4.72;1.90;;;;;;;20.05;21.64;102744.97;5003630;28;20053;-74
2021/04/16 13:18:09;;;;;;;4.28;1.92;;;;;;;20.02;21.09;102738.16;4982623;28;20182;-75
2021/04/16 13:20:36;;;;;;;7.40;2.35;;;;;;;19.81;22.03;102727.94;4977596;28;20081;-74
2021/04/16 13:23:02;;;;;;;4.45;2.30;;;;;;;19.93;22.74;102728.47;4988707;28;20073;-75
2021/04/16 13:25:30;;;;;;;4.75;2.20;;;;;;;20.00;22.60;102734.84;4974125;28;20054;-74
2021/04/16 13:27:56;;;;;;;6.47;2.65;;;;;;;19.82;22.85;102740.28;4987813;28;20581;-74
2021/04/16 13:30:25;;;;;;;4.43;2.13;;;;;;;19.99;23.49;102730.47;4978814;28;20054;-74
2021/04/16 13:32:54;;;;;;;9.23;3.08;;;;;;;19.99;22.87;102721.66;4983410;28;20647;-74
2021/04/16 13:35:31;;;;;;;6.57;2.72;;;;;;;20.01;23.12;102717.84;4991391;28;20116;-73
2021/04/16 13:38:01;;;;;;;5.47;2.78;;;;;;;19.91;24.06;102709.97;4997596;28;20058;-74
2021/04/16 13:40:27;;;;;;;7.82;2.78;;;;;;;19.59;23.49;102709.88;4986584;28;20053;-74
2021/04/16 13:42:53;;;;;;;6.32;2.88;;;;;;;19.23;23.52;102707.34;4990282;28;20104;-73
2021/04/16 13:45:19;;;;;;;6.95;2.58;;;;;;;19.09;24.43;102680.38;5003204;28;20050;-74
2021/04/16 13:47:45;;;;;;;5.57;2.63;;;;;;;19.17;25.12;102699.03;4980481;28;20058;-74
2021/04/16 13:50:15;;;;;;;7.38;2.92;;;;;;;19.26;24.53;102697.22;4983491;28;20056;-74
2021/04/16 13:52:44;;;;;;;7.25;2.47;;;;;;;19.41;25.68;102705.47;4988257;28;20525;-74